createdAt,value
2022-11-20T00:00:48.473Z,47.60
2022-11-20T00:03:26.082Z,44.60
2022-11-20T00:06:04.776Z,49.50
2022-11-20T00:08:38.723Z,48.30
2022-11-20T00:11:16.138Z,50.70
2022-11-20T00:13:51.800Z,50.40
2022-11-20T00:16:27.423Z,50.40
2022-11-20T00:19:00.929Z,49.00
2022-11-20T00:21:34.515Z,53.60
2022-11-20T00:24:11.205Z,46.60
2022-11-20T00:26:44.754Z,52.00
2022-11-20T00:29:18.725Z,51.50
2022-11-20T00:31:52.193Z,51.80
2022-11-20T00:34:25.441Z,47.70
2022-11-20T00:36:59.112Z,50.30
2022-11-20T00:39:33.070Z,44.90
2022-11-20T00:42:07.103Z,46.40
2022-11-20T00:44:41.128Z,50.90
2022-11-20T00:47:14.783Z,51.20
2022-11-20T00:49:48.642Z,48.60
2022-11-20T00:52:22.470Z,49.80
2022-11-20T00:54:56.254Z,48.60
2022-11-20T00:57:30.044Z,47.20
2022-11-20T01:00:03.652Z,51.40
2022-11-20T01:02:37.389Z,48.40
2022-11-20T01:05:11.516Z,48.80
2022-11-20T01:07:45.157Z,44.70
2022-11-20T01:10:19.185Z,50.70
2022-11-20T01:13:13.365Z,48.70
2022-11-20T01:15:47.074Z,48.60
2022-11-20T01:18:20.552Z,48.70
2022-11-20T01:20:54.629Z,47.30
2022-11-20T01:23:28.076Z,50.60
2022-11-20T01:26:01.649Z,46.70
2022-11-20T01:28:35.787Z,52.10
2022-11-20T01:31:18.135Z,48.10
2022-11-20T01:33:53.976Z,48.90
2022-11-20T01:36:31.291Z,47.80
2022-11-20T01:39:06.994Z,46.00
2022-11-20T01:41:58.772Z,44.20
2022-11-20T01:44:51.158Z,47.40
2022-11-20T01:47:29.815Z,46.50
2022-11-20T01:50:07.143Z,49.90
2022-11-20T01:52:48.594Z,50.90
2022-11-20T01:55:26.599Z,48.30
2022-11-20T01:58:00.608Z,44.90
2022-11-20T02:00:34.118Z,50.00
2022-11-20T02:03:12.403Z,46.80
2022-11-20T02:05:50.604Z,46.10
2022-11-20T02:08:24.520Z,44.10
2022-11-20T02:10:58.241Z,49.80
2022-11-20T02:13:48.754Z,46.00
2022-11-20T02:16:26.650Z,44.60
2022-11-20T02:19:01.986Z,46.40
2022-11-20T02:21:43.661Z,46.00
2022-11-20T02:24:20.063Z,45.60
2022-11-20T02:26:56.840Z,46.20
2022-11-20T02:29:35.116Z,47.80
2022-11-20T02:32:08.599Z,45.00
2022-11-20T02:34:42.474Z,42.00
2022-11-20T02:37:16.489Z,46.70
2022-11-20T02:39:51.668Z,47.10
2022-11-20T02:42:25.556Z,45.70
2022-11-20T02:44:59.314Z,48.50
2022-11-20T02:47:32.384Z,47.40
2022-11-20T02:50:06.406Z,49.60
2022-11-20T02:52:40.225Z,46.40
2022-11-20T02:55:14.184Z,48.10
2022-11-20T02:57:48.385Z,46.30
2022-11-20T03:00:22.610Z,51.20
2022-11-20T03:02:56.224Z,43.30
2022-11-20T03:05:29.541Z,44.10
2022-11-20T03:08:03.036Z,43.70
2022-11-20T03:10:36.459Z,48.60
2022-11-20T03:13:10.061Z,42.40
2022-11-20T03:15:43.789Z,46.90
2022-11-20T03:18:17.153Z,50.20
2022-11-20T03:20:50.604Z,47.20
2022-11-20T03:23:23.907Z,44.00
2022-11-20T03:25:57.570Z,47.40
2022-11-20T03:28:31.268Z,42.80
2022-11-20T03:31:09.822Z,41.60
2022-11-20T03:33:44.865Z,47.20
2022-11-20T03:36:20.151Z,41.90
2022-11-20T03:38:55.499Z,46.30
2022-11-20T03:41:31.116Z,43.40
2022-11-20T03:44:06.479Z,46.90
2022-11-20T03:46:40.459Z,45.30
2022-11-20T03:49:13.898Z,38.00
2022-11-20T03:51:48.545Z,45.60
2022-11-20T03:54:22.182Z,39.90
2022-11-20T03:56:56.060Z,45.80
2022-11-20T03:59:29.351Z,47.80
2022-11-20T04:02:02.868Z,48.50
2022-11-20T04:04:36.479Z,45.70
2022-11-20T04:07:10.274Z,49.00
2022-11-20T04:09:43.558Z,47.10
2022-11-20T04:12:16.763Z,42.70
2022-11-20T04:14:50.711Z,43.30
2022-11-20T04:17:24.159Z,43.10
2022-11-20T04:19:57.422Z,46.40
2022-11-20T04:22:30.936Z,48.70
2022-11-20T04:25:04.979Z,40.20
2022-11-20T04:27:38.650Z,43.50
2022-11-20T04:30:14.293Z,45.50
2022-11-20T04:32:47.712Z,44.80
2022-11-20T04:35:21.383Z,45.60
2022-11-20T04:37:57.255Z,36.70
2022-11-20T04:40:30.999Z,42.80
2022-11-20T04:43:04.532Z,42.90
2022-11-20T04:45:37.866Z,51.20
2022-11-20T04:48:11.267Z,47.90
2022-11-20T04:50:46.032Z,57.80
2022-11-20T04:53:20.382Z,50.90
2022-11-20T04:55:54.429Z,45.00
2022-11-20T04:58:28.223Z,42.70
2022-11-20T05:01:07.696Z,20.00
2022-11-20T05:03:42.672Z,50.90
2022-11-20T05:06:17.812Z,42.90
2022-11-20T05:09:00.619Z,51.00
2022-11-20T05:11:34.640Z,46.40
2022-11-20T05:14:08.139Z,47.80
2022-11-20T05:16:42.311Z,46.40
2022-11-20T05:19:15.980Z,49.60
2022-11-20T05:21:49.748Z,48.70
2022-11-20T05:24:23.375Z,50.60
2022-11-20T05:26:57.141Z,40.50
2022-11-20T05:29:30.703Z,43.30
2022-11-20T05:32:04.451Z,45.00
2022-11-20T05:34:38.095Z,43.40
2022-11-20T05:37:11.252Z,37.70
2022-11-20T05:39:44.703Z,42.70
2022-11-20T05:42:33.899Z,42.20
2022-11-20T05:45:09.521Z,41.40
2022-11-20T05:47:42.887Z,47.20
2022-11-20T05:50:16.821Z,44.20
2022-11-20T05:52:50.509Z,39.70
2022-11-20T05:55:24.289Z,40.40
2022-11-20T05:57:58.692Z,42.60
2022-11-20T06:00:32.180Z,42.00
2022-11-20T06:03:05.841Z,39.40
2022-11-20T06:05:39.547Z,45.30
2022-11-20T06:08:13.186Z,42.20
2022-11-20T06:10:46.712Z,39.10
2022-11-20T06:13:20.182Z,44.50
2022-11-20T06:15:55.339Z,41.60
2022-11-20T06:18:30.936Z,45.60
2022-11-20T06:21:10.238Z,38.60
2022-11-20T06:23:46.197Z,44.60
2022-11-20T06:26:20.988Z,42.30
2022-11-20T06:28:55.511Z,46.40
2022-11-20T06:31:30.063Z,39.60
2022-11-20T06:34:03.582Z,43.40
2022-11-20T06:36:37.794Z,43.30
2022-11-20T06:39:11.031Z,41.20
2022-11-20T06:41:44.869Z,45.70
2022-11-20T06:44:18.605Z,45.10
2022-11-20T06:46:52.393Z,39.20
2022-11-20T06:49:26.690Z,44.70
2022-11-20T06:52:00.121Z,42.10
2022-11-20T06:54:33.391Z,36.60
2022-11-20T06:57:06.931Z,40.10
2022-11-20T06:59:40.658Z,39.20
2022-11-20T07:02:15.395Z,39.80
2022-11-20T07:04:49.237Z,40.40
2022-11-20T07:07:23.096Z,45.00
2022-11-20T07:09:56.812Z,39.20
2022-11-20T07:12:30.013Z,40.30
2022-11-20T07:15:03.746Z,43.70
2022-11-20T07:17:37.135Z,40.70
2022-11-20T07:20:12.465Z,50.60
2022-11-20T07:22:46.141Z,39.30
2022-11-20T07:25:19.878Z,40.30
2022-11-20T07:27:53.501Z,43.80
2022-11-20T07:30:27.579Z,41.40
2022-11-20T07:33:01.694Z,42.80
2022-11-20T07:35:35.718Z,42.30
2022-11-20T07:38:09.439Z,45.40
2022-11-20T07:40:43.132Z,41.80
2022-11-20T07:43:16.697Z,43.10
2022-11-20T07:45:50.316Z,46.20
2022-11-20T07:48:24.105Z,43.80
2022-11-20T07:50:59.409Z,44.60
2022-11-20T07:53:33.429Z,43.80
2022-11-20T07:56:08.124Z,40.70
2022-11-20T07:58:41.440Z,47.30
2022-11-20T08:01:15.200Z,44.60
2022-11-20T08:03:48.600Z,49.60
2022-11-20T08:06:22.173Z,48.90
2022-11-20T08:08:55.726Z,40.40
2022-11-20T08:11:47.521Z,43.90
2022-11-20T08:14:21.090Z,43.30
2022-11-20T08:16:54.733Z,52.50
2022-11-20T08:19:28.048Z,47.70
2022-11-20T08:22:01.747Z,47.50
2022-11-20T08:24:35.426Z,49.50
2022-11-20T08:27:08.820Z,51.30
2022-11-20T08:29:42.465Z,50.50
2022-11-20T08:32:16.470Z,44.10
2022-11-20T08:34:49.852Z,48.20
2022-11-20T08:37:23.676Z,50.70
2022-11-20T08:39:58.399Z,42.60
2022-11-20T08:42:31.664Z,46.40
2022-11-20T08:45:06.024Z,43.50
2022-11-20T08:47:39.299Z,49.70
2022-11-20T08:50:14.885Z,48.80
2022-11-20T08:52:48.292Z,49.80
2022-11-20T08:55:22.427Z,46.40
2022-11-20T08:57:56.390Z,44.60
2022-11-20T09:00:29.797Z,44.30
2022-11-20T09:03:03.459Z,47.30
2022-11-20T09:05:37.087Z,50.70
2022-11-20T09:08:11.088Z,48.40
2022-11-20T09:10:44.527Z,49.50
2022-11-20T09:13:18.436Z,47.40
2022-11-20T09:15:57.634Z,48.40
2022-11-20T09:18:33.117Z,46.70
2022-11-20T09:21:09.055Z,51.00
2022-11-20T09:23:43.092Z,48.20
2022-11-20T09:26:17.184Z,50.40
2022-11-20T09:28:55.338Z,50.50
2022-11-20T09:31:30.707Z,46.10
2022-11-20T09:34:04.321Z,46.00
2022-11-20T09:36:38.000Z,43.90
2022-11-20T09:39:11.886Z,47.40
2022-11-20T09:42:04.453Z,53.30
2022-11-20T09:44:59.047Z,52.60
2022-11-20T09:47:45.095Z,44.90
2022-11-20T09:50:32.300Z,52.30
2022-11-20T09:53:22.781Z,46.80
2022-11-20T09:55:57.577Z,43.40
2022-11-20T09:58:38.726Z,48.20
2022-11-20T10:01:16.765Z,53.40
2022-11-20T10:04:00.183Z,52.30
2022-11-20T10:06:37.210Z,54.10
2022-11-20T10:09:25.056Z,44.60
2022-11-20T10:12:09.343Z,50.00
2022-11-20T10:14:55.281Z,45.60
2022-11-20T10:17:42.311Z,47.20
2022-11-20T10:20:24.378Z,51.80
2022-11-20T10:23:15.028Z,43.80
2022-11-20T10:25:54.422Z,39.00
2022-11-20T10:28:53.964Z,47.00
2022-11-20T10:31:38.608Z,41.60
2022-11-20T10:34:23.032Z,46.70
2022-11-20T10:37:05.066Z,44.10
2022-11-20T10:39:44.440Z,51.90
2022-11-20T10:42:27.833Z,44.60
2022-11-20T10:45:18.868Z,46.10
2022-11-20T10:47:53.029Z,45.00
2022-11-20T10:50:28.231Z,44.60
2022-11-20T10:53:14.856Z,46.90
2022-11-20T10:55:53.605Z,46.30
2022-11-20T10:58:38.915Z,46.10
2022-11-20T11:01:18.830Z,45.50
2022-11-20T11:03:54.329Z,43.80
2022-11-20T11:06:35.579Z,41.40
2022-11-20T11:09:15.695Z,46.90
2022-11-20T11:11:49.172Z,43.80
2022-11-20T11:14:25.850Z,41.00
2022-11-20T11:17:00.612Z,39.10
2022-11-20T11:19:34.219Z,47.30
2022-11-20T11:22:22.894Z,42.60
2022-11-20T11:24:57.499Z,44.20
2022-11-20T11:27:31.222Z,41.40
2022-11-20T11:30:18.617Z,42.20
2022-11-20T11:32:52.552Z,38.70
2022-11-20T11:35:31.433Z,36.10
2022-11-20T11:38:19.261Z,39.40
2022-11-20T11:40:56.162Z,40.80
2022-11-20T11:43:50.826Z,36.60
2022-11-20T11:46:39.040Z,39.50
2022-11-20T11:49:21.948Z,33.90
2022-11-20T11:52:14.555Z,38.80
2022-11-20T11:54:54.007Z,36.60
2022-11-20T11:57:33.072Z,37.70
2022-11-20T12:00:13.125Z,40.20
2022-11-20T12:03:00.727Z,35.00
2022-11-20T12:05:44.380Z,37.20
2022-11-20T12:08:25.794Z,38.00
2022-11-20T12:11:06.327Z,32.90
2022-11-20T12:13:49.913Z,34.80
2022-11-20T12:16:25.536Z,35.40
2022-11-20T12:18:59.244Z,33.50
2022-11-20T12:21:44.841Z,33.00
2022-11-20T12:24:44.259Z,36.20
2022-11-20T12:27:43.054Z,35.40
2022-11-20T12:30:19.101Z,32.30
2022-11-20T12:33:15.147Z,31.30
2022-11-20T12:36:05.455Z,35.30
2022-11-20T12:39:10.304Z,38.70
2022-11-20T12:42:18.663Z,34.80
2022-11-20T12:45:20.811Z,34.60
2022-11-20T12:48:09.037Z,34.30
2022-11-20T12:54:02.701Z,34.50
2022-11-20T12:56:44.540Z,38.20
2022-11-20T12:59:37.154Z,34.90
2022-11-20T13:02:27.235Z,36.20
2022-11-20T13:05:21.581Z,36.60
2022-11-20T13:07:59.350Z,33.60
2022-11-20T13:10:46.613Z,35.70
2022-11-20T13:13:27.412Z,37.70
2022-11-20T13:16:08.716Z,34.10
2022-11-20T13:18:47.226Z,34.50
2022-11-20T13:21:24.047Z,34.00
2022-11-20T13:24:08.811Z,34.90
2022-11-20T13:26:43.069Z,36.20
2022-11-20T13:29:21.704Z,37.80
2022-11-20T13:34:35.828Z,37.90
2022-11-20T13:37:30.909Z,37.50
2022-11-20T13:40:25.530Z,41.90
2022-11-20T13:43:11.069Z,38.10
2022-11-20T13:45:57.741Z,36.20
2022-11-20T13:48:36.108Z,38.00
2022-11-20T13:51:33.648Z,41.60
2022-11-20T13:54:38.269Z,36.70
2022-11-20T13:57:31.047Z,38.10
2022-11-20T14:00:14.453Z,37.90
2022-11-20T14:02:57.180Z,42.00
2022-11-20T14:05:31.105Z,42.70
2022-11-20T14:08:09.594Z,37.60
2022-11-20T14:10:43.857Z,35.80
2022-11-20T14:13:23.114Z,41.50
2022-11-20T14:16:01.519Z,37.10
2022-11-20T14:18:35.995Z,38.10
2022-11-20T14:21:13.745Z,41.50
2022-11-20T14:23:48.456Z,39.00
2022-11-20T14:26:23.561Z,41.20
2022-11-20T14:28:58.556Z,42.20
2022-11-20T14:31:33.927Z,41.20
2022-11-20T14:34:08.773Z,44.30
2022-11-20T14:36:43.362Z,43.40
2022-11-20T14:39:25.960Z,40.80
2022-11-20T14:42:00.596Z,45.60
2022-11-20T14:44:38.831Z,47.10
2022-11-20T14:47:19.388Z,47.80
2022-11-20T14:49:54.326Z,46.10
2022-11-20T14:52:30.291Z,42.00
2022-11-20T14:55:05.354Z,44.00
2022-11-20T14:57:40.602Z,44.70
2022-11-20T15:00:26.137Z,46.60
2022-11-20T15:03:00.536Z,43.70
2022-11-20T15:08:33.080Z,46.10
2022-11-20T15:11:18.888Z,47.00
2022-11-20T15:13:54.145Z,44.70
2022-11-20T15:16:29.779Z,43.40
2022-11-20T15:19:05.173Z,45.20
2022-11-20T15:21:39.226Z,44.40
2022-11-20T15:24:14.676Z,44.70
2022-11-20T15:26:49.591Z,44.40
2022-11-20T15:29:26.418Z,42.80
2022-11-20T15:32:00.588Z,49.10
2022-11-20T15:34:35.216Z,44.00
2022-11-20T15:37:09.343Z,41.50
2022-11-20T15:39:47.495Z,44.10
2022-11-20T15:42:21.781Z,43.60
2022-11-20T15:44:55.576Z,40.10
2022-11-20T15:47:33.019Z,41.40
2022-11-20T15:50:13.017Z,44.30
2022-11-20T15:52:48.210Z,41.60
2022-11-20T15:55:23.219Z,43.10
2022-11-20T15:57:58.144Z,44.30
2022-11-20T16:00:32.860Z,48.10
2022-11-20T16:03:07.993Z,45.20
2022-11-20T16:05:43.514Z,43.40
2022-11-20T16:08:18.708Z,39.30
2022-11-20T16:10:52.848Z,46.10
2022-11-20T16:13:44.691Z,42.20
2022-11-20T16:16:24.730Z,45.90
2022-11-20T16:18:59.645Z,40.70
2022-11-20T16:21:36.246Z,42.60
2022-11-20T16:24:14.785Z,40.30
2022-11-20T16:26:49.132Z,38.90
2022-11-20T16:29:24.231Z,40.70
2022-11-20T16:32:02.578Z,41.10
2022-11-20T16:34:37.687Z,35.90
2022-11-20T16:37:12.478Z,42.50
2022-11-20T16:39:48.092Z,36.30
2022-11-20T16:42:22.917Z,41.30
2022-11-20T16:44:57.644Z,36.50
2022-11-20T16:47:37.013Z,38.10
2022-11-20T16:50:13.256Z,37.50
2022-11-20T16:52:47.803Z,42.40
2022-11-20T16:55:22.339Z,43.10
2022-11-20T16:57:57.690Z,40.60
2022-11-20T17:00:31.693Z,41.30
2022-11-20T17:03:06.689Z,39.20
2022-11-20T17:05:45.053Z,44.90
2022-11-20T17:08:19.376Z,43.00
2022-11-20T17:10:53.815Z,39.20
2022-11-20T17:13:30.068Z,43.90
2022-11-20T17:16:07.300Z,43.10
2022-11-20T17:18:42.335Z,42.80
2022-11-20T17:21:17.855Z,42.90
2022-11-20T17:23:52.299Z,42.30
2022-11-20T17:26:29.094Z,43.50
2022-11-20T17:29:06.693Z,41.20
2022-11-20T17:31:44.900Z,43.60
2022-11-20T17:34:19.925Z,44.30
2022-11-20T17:36:56.458Z,42.70
2022-11-20T17:39:31.091Z,44.50
2022-11-20T17:42:22.884Z,45.60
2022-11-20T17:44:59.778Z,39.60
2022-11-20T17:47:37.341Z,41.00
2022-11-20T17:50:12.735Z,46.30
2022-11-20T17:52:48.547Z,41.10
2022-11-20T17:55:23.595Z,43.10
2022-11-20T17:58:03.870Z,43.60
2022-11-20T18:00:38.170Z,42.70
2022-11-20T18:03:13.015Z,45.30
2022-11-20T18:05:47.989Z,40.90
2022-11-20T18:08:22.537Z,42.90
2022-11-20T18:10:57.142Z,40.30
2022-11-20T18:13:52.341Z,44.60
2022-11-20T18:16:28.028Z,40.20
2022-11-20T18:19:03.989Z,40.30
2022-11-20T18:21:39.153Z,42.90
2022-11-20T18:24:15.360Z,44.90
2022-11-20T18:26:50.831Z,40.90
2022-11-20T18:29:26.226Z,38.20
2022-11-20T18:32:02.637Z,37.10
2022-11-20T18:34:37.822Z,43.70
2022-11-20T18:37:15.640Z,42.80
2022-11-20T18:39:51.351Z,40.70
2022-11-20T18:42:43.825Z,36.00
2022-11-20T18:45:20.472Z,40.90
2022-11-20T18:47:56.952Z,42.40
2022-11-20T18:50:32.265Z,40.80
2022-11-20T18:53:08.623Z,40.60
2022-11-20T18:55:43.266Z,38.50
2022-11-20T18:58:17.545Z,40.10
2022-11-20T19:00:54.545Z,38.40
2022-11-20T19:03:31.000Z,42.90
2022-11-20T19:06:05.994Z,40.10
2022-11-20T19:08:41.937Z,37.60
2022-11-20T19:11:17.369Z,44.20
2022-11-20T19:13:51.771Z,44.50
2022-11-20T19:16:27.405Z,50.60
2022-11-20T19:19:03.775Z,45.80
2022-11-20T19:21:38.969Z,45.10
2022-11-20T19:24:14.042Z,46.10
2022-11-20T19:26:49.086Z,44.80
2022-11-20T19:29:25.103Z,48.50
2022-11-20T19:32:01.085Z,48.50
2022-11-20T19:34:36.140Z,50.90
2022-11-20T19:37:11.873Z,48.30
2022-11-20T19:39:46.570Z,53.40
2022-11-20T19:42:21.601Z,54.10
2022-11-20T19:44:59.131Z,57.10
2022-11-20T19:48:06.160Z,45.10
2022-11-20T19:50:31.395Z,50.50
2022-11-20T19:53:08.818Z,52.10
2022-11-20T19:55:44.830Z,49.30
2022-11-20T19:58:23.627Z,55.20
2022-11-20T20:00:59.031Z,47.70
2022-11-20T20:03:33.578Z,52.10
2022-11-20T20:06:09.460Z,52.80
2022-11-20T20:08:44.633Z,51.70
2022-11-20T20:11:20.867Z,53.60
2022-11-20T20:13:57.959Z,53.60
2022-11-20T20:16:33.378Z,56.70
2022-11-20T20:19:08.993Z,58.50
2022-11-20T20:21:43.771Z,54.60
2022-11-20T20:24:18.959Z,59.60
2022-11-20T20:26:57.961Z,55.30
2022-11-20T20:29:34.278Z,55.00
2022-11-20T20:32:09.449Z,59.20
2022-11-20T20:34:43.481Z,57.10
2022-11-20T20:37:18.711Z,58.00
2022-11-20T20:39:53.606Z,56.70
2022-11-20T20:42:28.993Z,60.20
2022-11-20T20:45:11.637Z,56.90
2022-11-20T20:47:55.821Z,59.10
2022-11-20T20:50:34.954Z,57.90
2022-11-20T20:53:09.509Z,58.30
2022-11-20T20:55:44.269Z,53.70
2022-11-20T20:58:18.376Z,55.80
2022-11-20T21:00:53.107Z,60.80
2022-11-20T21:03:30.673Z,56.70
2022-11-20T21:06:08.748Z,59.70
2022-11-20T21:08:44.655Z,58.30
2022-11-20T21:11:20.911Z,56.90
2022-11-20T21:13:54.546Z,59.80
2022-11-20T21:16:42.157Z,53.30
2022-11-20T21:19:16.942Z,62.00
2022-11-20T21:22:00.845Z,60.60
2022-11-20T21:24:35.778Z,56.20
2022-11-20T21:27:09.819Z,58.40
2022-11-20T21:29:43.887Z,59.10
2022-11-20T21:32:18.026Z,63.90
2022-11-20T21:34:52.351Z,64.90
2022-11-20T21:37:26.518Z,62.10
2022-11-20T21:40:00.075Z,60.40
2022-11-20T21:42:33.702Z,66.70
2022-11-20T21:45:08.387Z,61.90
2022-11-20T21:47:41.855Z,62.00
2022-11-20T21:50:15.543Z,63.80
2022-11-20T21:52:49.336Z,64.30
2022-11-20T21:55:23.423Z,67.50
2022-11-20T21:57:57.016Z,62.50
2022-11-20T22:00:30.297Z,60.80
2022-11-20T22:03:03.994Z,61.90
2022-11-20T22:05:37.672Z,60.80
2022-11-20T22:08:11.361Z,60.30
2022-11-20T22:10:44.562Z,62.50
2022-11-20T22:13:36.299Z,68.00
2022-11-20T22:16:10.399Z,64.70
2022-11-20T22:18:47.498Z,68.10
2022-11-20T22:21:22.454Z,68.10
2022-11-20T22:23:56.764Z,55.60
2022-11-20T22:26:34.930Z,64.40
2022-11-20T22:29:17.219Z,65.50
2022-11-20T22:31:52.844Z,67.90
2022-11-20T22:34:26.434Z,69.00
2022-11-20T22:37:01.037Z,67.90
2022-11-20T22:39:34.492Z,65.00
2022-11-20T22:42:08.210Z,61.60
2022-11-20T22:44:41.790Z,69.30
2022-11-20T22:47:15.102Z,65.80
2022-11-20T22:49:49.075Z,70.70
2022-11-20T22:52:22.415Z,71.20
2022-11-20T22:54:55.713Z,65.20
2022-11-20T22:57:29.210Z,69.60
2022-11-20T23:00:02.616Z,66.90
2022-11-20T23:02:36.266Z,68.70
2022-11-20T23:05:10.775Z,65.00
2022-11-20T23:07:44.896Z,67.60
2022-11-20T23:10:18.654Z,71.80
2022-11-20T23:12:51.866Z,73.10
2022-11-20T23:15:25.549Z,67.50
2022-11-20T23:17:58.913Z,66.30
2022-11-20T23:20:32.885Z,75.40
2022-11-20T23:23:06.478Z,70.90
2022-11-20T23:25:39.881Z,72.10
2022-11-20T23:28:13.636Z,67.80
2022-11-20T23:30:49.593Z,66.20
2022-11-20T23:33:22.851Z,70.00
2022-11-20T23:35:56.472Z,70.80
2022-11-20T23:38:30.252Z,70.80
2022-11-20T23:41:04.204Z,69.70
2022-11-20T23:43:37.769Z,71.50
2022-11-20T23:46:16.464Z,69.60
2022-11-20T23:48:50.645Z,64.30
2022-11-20T23:51:24.532Z,66.10
2022-11-20T23:54:03.272Z,72.00
2022-11-20T23:56:38.518Z,68.10
2022-11-20T23:59:12.364Z,74.00
